Terminal Aerodrome Forecast
Issued by NWS Upton, NY

Home | Current Version | Previous Version | Text Only | Print | Product List | Glossary On
Versions: 1 2 3 4 5 6 7 8 9 10 11 12 13 14 15 16 17 18 19 20 21 22 23 24 25 26 27 28 29 30 31 32 33 34
000
FTUS41 KOKX 281449 AAC
TAFLGA
TAF AMD
KLGA 281449Z 2815/2912 16008KT P6SM SCT015 SCT070
     FM281800 15012G17KT P6SM SCT070 BKN250
     FM290000 13010KT P6SM SCT015 BKN100
     FM290500 11009G15KT P6SM VCSH OVC015
     FM290900 10012G17KT 5SM -RA OVC007
     FM291100 11012G17KT 2SM RA VCTS OVC007CB=

USA.gov is the U.S. government's official web portal to all federal, state and local government web resources and services.